Port Mellon, Canada
Current Conditions -  °F | °C
As of 6:00 AM on Thursday 18 Dec 2014 (Local Time) from CYVR Reporting Station
Light Rain Light Rain  
Wind Chill: 39°   Ceiling: 1100
Heat Index: 45°   Visibility: 6mi
Dew Point: 43°   Wind: 10mph
Humidity: 93%   Direction: 90°E
Pressure: 29.93"   Gusts: NA
Location:  49.52°N, 123.48°W
Report Text: CYVR 181400Z 09009KT 6SM -RA BR SCT004 OVC011 07/06 A2993 RMK SC3SC5 SLP135
Loading
Personal Weather Stations






























Interactive Weather Map New forecast layout! Learn more

10-Day Weather Forecast

Advertisements
Track Severe Weather on mobile